LTCK/MSR METAR and TAF weather

Enter ICAO airport designator
Station Type Date Time Source
LTCK METAR 2019/05/25 09:30 UTC NOAA

LTCK 250930Z 25011KT 190V280 9000 TS FEW020CB BKN030 BKN070 20/11 Q1017 RETSRA


Station Type Date Time Source
LTCK Decoded METAR 2019/05/25 09:30 UTC NOAA

Mus Tur-Afb , Turkey (LTCK) 38-45N 041-40E
May 25, 2019 - 05:30 AM EDT / 2019.05.25 0930 UTC
Wind: from the WSW (250 degrees) at 13 MPH (11 KT) (direction variable):0
Visibility: 5 mile(s):0
Sky conditions: mostly cloudy
Weather: thunder; Cumulonimbus clouds observed
Temperature: 68 F (20 C)
Dew Point: 51 F (11 C)
Relative Humidity: 56%
Pressure (altimeter): 30.03 in. Hg (1017 hPa)
ob: LTCK 250930Z 25011KT 190V280 9000 TS FEW020CB BKN030 BKN070 20/11 Q1017 RETSRA
cycle: 9

Station Type Date Time Source
LTCK TAF UTC NOAA

Error!

Example: see airport list